createdAt,value
2017-12-17T00:00:47.720Z,26.67
2017-12-17T00:03:16.016Z,28.00
2017-12-17T00:05:45.141Z,24.17
2017-12-17T00:08:13.470Z,27.90
2017-12-17T00:10:41.763Z,25.47
2017-12-17T00:13:10.128Z,25.60
2017-12-17T00:15:39.194Z,22.40
2017-12-17T00:18:07.506Z,26.90
2017-12-17T00:20:36.669Z,12.83
2017-12-17T00:23:04.969Z,22.43
2017-12-17T00:25:33.341Z,17.50
2017-12-17T00:28:01.784Z,23.13
2017-12-17T00:30:30.132Z,12.97
2017-12-17T00:32:58.407Z,14.27
2017-12-17T00:35:26.711Z,23.00
2017-12-17T00:37:55.004Z,16.90
2017-12-17T00:40:23.347Z,24.57
2017-12-17T00:42:51.680Z,25.20
2017-12-17T00:45:19.943Z,19.60
2017-12-17T00:47:48.260Z,23.77
2017-12-17T00:50:16.573Z,24.33
2017-12-17T00:52:44.883Z,21.53
2017-12-17T00:55:13.154Z,23.83
2017-12-17T00:57:42.241Z,25.10
2017-12-17T01:00:10.546Z,12.90
2017-12-17T01:02:39.637Z,23.23
2017-12-17T01:05:08.746Z,17.93
2017-12-17T01:07:37.080Z,24.93
2017-12-17T01:10:05.448Z,24.60
2017-12-17T01:12:33.791Z,15.27
2017-12-17T01:15:02.115Z,22.13
2017-12-17T01:17:30.430Z,16.73
2017-12-17T01:19:59.597Z,25.90
2017-12-17T01:22:28.708Z,24.00
2017-12-17T01:24:57.806Z,16.50
2017-12-17T01:27:26.863Z,15.87
2017-12-17T01:29:55.234Z,17.30
2017-12-17T01:32:23.509Z,26.43
2017-12-17T01:34:51.840Z,11.40
2017-12-17T01:37:20.884Z,11.20
2017-12-17T01:39:49.226Z,25.03
2017-12-17T01:42:17.542Z,19.47
2017-12-17T01:44:45.845Z,23.10
2017-12-17T01:47:14.128Z,20.23
2017-12-17T01:49:42.453Z,12.10
2017-12-17T01:52:10.755Z,11.00
2017-12-17T01:54:39.022Z,10.90
2017-12-17T01:57:07.364Z,10.97
2017-12-17T01:59:35.640Z,10.47
2017-12-17T02:02:03.945Z,14.00
2017-12-17T02:04:32.318Z,10.60
2017-12-17T02:07:00.642Z,17.17
2017-12-17T02:09:30.478Z,18.80
2017-12-17T02:11:58.783Z,18.93
2017-12-17T02:14:27.095Z,18.23
2017-12-17T02:16:55.362Z,17.40
2017-12-17T02:19:23.718Z,11.80
2017-12-17T02:21:51.992Z,12.00
2017-12-17T02:24:20.272Z,12.30
2017-12-17T02:26:48.584Z,12.07
2017-12-17T02:29:16.901Z,10.87
2017-12-17T02:31:45.214Z,12.43
2017-12-17T02:34:13.571Z,11.57
2017-12-17T02:36:41.865Z,11.97
2017-12-17T02:39:10.163Z,10.10
2017-12-17T02:41:38.500Z,12.30
2017-12-17T02:44:06.856Z,10.53
2017-12-17T02:46:35.127Z,11.70
2017-12-17T02:49:03.549Z,24.37
2017-12-17T02:51:31.928Z,16.63
2017-12-17T02:54:00.211Z,20.43
2017-12-17T02:56:28.581Z,15.87
2017-12-17T02:58:56.833Z,11.53
2017-12-17T03:01:25.110Z,13.50
2017-12-17T03:03:53.453Z,14.30
2017-12-17T03:06:22.483Z,16.77
2017-12-17T03:08:50.744Z,21.53
2017-12-17T03:11:19.056Z,22.00
2017-12-17T03:13:47.327Z,21.30
2017-12-17T03:16:15.591Z,18.07
2017-12-17T03:18:43.911Z,19.80
2017-12-17T03:21:12.189Z,21.03
2017-12-17T03:23:40.454Z,17.10
2017-12-17T03:26:08.793Z,22.53
2017-12-17T03:28:37.085Z,20.57
2017-12-17T03:31:05.365Z,21.50
2017-12-17T03:33:33.684Z,21.77
2017-12-17T03:36:02.785Z,20.40
2017-12-17T03:38:31.078Z,21.73
2017-12-17T03:40:59.401Z,21.67
2017-12-17T03:43:27.672Z,22.13
2017-12-17T03:45:56.007Z,25.10
2017-12-17T03:48:24.394Z,19.83
2017-12-17T03:50:53.402Z,21.97
2017-12-17T03:53:21.749Z,23.90
2017-12-17T03:55:50.075Z,23.37
2017-12-17T03:58:18.396Z,22.77
2017-12-17T04:00:46.686Z,22.73
2017-12-17T04:03:15.028Z,20.40
2017-12-17T04:05:44.072Z,12.73
2017-12-17T04:08:12.317Z,21.13
2017-12-17T04:10:40.672Z,17.43
2017-12-17T04:13:08.945Z,22.17
2017-12-17T04:15:37.236Z,18.77
2017-12-17T04:18:06.300Z,22.07
2017-12-17T04:20:34.614Z,19.57
2017-12-17T04:23:03.643Z,13.33
2017-12-17T04:25:31.983Z,18.90
2017-12-17T04:28:00.277Z,11.70
2017-12-17T04:30:28.570Z,21.03
2017-12-17T04:32:56.897Z,21.10
2017-12-17T04:35:25.935Z,23.30
2017-12-17T04:37:54.228Z,19.27
2017-12-17T04:40:22.610Z,24.33
2017-12-17T04:42:50.942Z,27.87
2017-12-17T04:45:19.232Z,12.63
2017-12-17T04:47:47.597Z,12.70
2017-12-17T04:50:15.890Z,12.50
2017-12-17T04:52:44.194Z,15.73
2017-12-17T04:55:12.569Z,20.90
2017-12-17T04:57:40.806Z,10.07
2017-12-17T05:00:09.105Z,15.47
2017-12-17T05:02:37.454Z,18.57
2017-12-17T05:05:06.478Z,10.87
2017-12-17T05:07:34.816Z,12.33
2017-12-17T05:10:03.908Z,16.23
2017-12-17T05:12:32.961Z,11.03
2017-12-17T05:15:01.254Z,12.07
2017-12-17T05:17:29.611Z,12.00
2017-12-17T05:19:57.875Z,16.30
2017-12-17T05:22:26.218Z,8.80
2017-12-17T05:24:55.268Z,11.13
2017-12-17T05:27:23.597Z,12.17
2017-12-17T05:29:52.611Z,12.77
2017-12-17T05:32:20.931Z,16.63
2017-12-17T05:34:49.236Z,14.07
2017-12-17T05:37:18.309Z,15.93
2017-12-17T05:39:46.639Z,16.83
2017-12-17T05:42:14.997Z,17.10
2017-12-17T05:44:43.293Z,16.73
2017-12-17T05:47:11.617Z,17.40
2017-12-17T05:49:39.905Z,18.10
2017-12-17T05:52:08.937Z,16.33
2017-12-17T05:54:37.270Z,16.37
2017-12-17T05:57:05.580Z,10.70
2017-12-17T05:59:33.858Z,16.23
2017-12-17T06:02:02.175Z,9.20
2017-12-17T06:04:30.464Z,8.70
2017-12-17T06:06:58.771Z,15.03
2017-12-17T06:09:28.307Z,14.73
2017-12-17T06:11:57.674Z,14.03
2017-12-17T06:14:26.683Z,13.80
2017-12-17T06:16:55.032Z,13.30
2017-12-17T06:19:23.348Z,11.67
2017-12-17T06:21:51.675Z,11.80
2017-12-17T06:24:19.979Z,8.63
2017-12-17T06:26:48.318Z,12.40
2017-12-17T06:29:16.626Z,11.37
2017-12-17T06:31:45.736Z,11.17
2017-12-17T06:34:14.115Z,14.10
2017-12-17T06:36:42.479Z,12.70
2017-12-17T06:39:11.586Z,12.07
2017-12-17T06:41:39.838Z,13.27
2017-12-17T06:44:08.881Z,9.30
2017-12-17T06:46:37.163Z,6.70
2017-12-17T06:49:05.442Z,10.57
2017-12-17T06:51:33.773Z,9.40
2017-12-17T06:54:02.893Z,9.70
2017-12-17T06:56:31.172Z,16.40
2017-12-17T06:58:59.510Z,10.17
2017-12-17T07:01:27.871Z,15.83
2017-12-17T07:03:56.157Z,9.50
2017-12-17T07:06:24.568Z,8.30
2017-12-17T07:08:52.874Z,8.37
2017-12-17T07:11:21.165Z,7.10
2017-12-17T07:13:49.491Z,7.47
2017-12-17T07:16:17.833Z,7.97
2017-12-17T07:18:46.241Z,9.27
2017-12-17T07:21:15.349Z,7.00
2017-12-17T07:23:43.666Z,8.70
2017-12-17T07:26:11.978Z,11.70
2017-12-17T07:28:41.050Z,7.67
2017-12-17T07:31:10.146Z,7.53
2017-12-17T07:33:38.482Z,7.20
2017-12-17T07:36:06.812Z,7.27
2017-12-17T07:38:35.164Z,8.73
2017-12-17T07:41:03.442Z,7.33
2017-12-17T07:43:31.729Z,10.50
2017-12-17T07:46:00.066Z,9.40
2017-12-17T07:48:28.447Z,16.60
2017-12-17T07:50:56.756Z,8.90
2017-12-17T07:53:25.094Z,9.83
2017-12-17T07:55:53.440Z,13.40
2017-12-17T07:58:22.481Z,14.60
2017-12-17T08:00:50.840Z,15.07
2017-12-17T08:03:19.118Z,15.97
2017-12-17T08:05:47.408Z,16.43
2017-12-17T08:08:15.718Z,15.67
2017-12-17T08:10:43.985Z,15.37
2017-12-17T08:13:12.282Z,15.10
2017-12-17T08:15:41.575Z,15.50
2017-12-17T08:18:09.858Z,14.00
2017-12-17T08:20:38.314Z,15.30
2017-12-17T08:23:06.631Z,17.70
2017-12-17T08:25:35.805Z,8.20
2017-12-17T08:28:04.113Z,9.30
2017-12-17T08:30:32.449Z,8.50
2017-12-17T08:33:00.752Z,9.23
2017-12-17T08:35:29.098Z,7.87
2017-12-17T08:37:57.530Z,8.83
2017-12-17T08:40:25.893Z,9.00
2017-12-17T08:42:54.276Z,8.30
2017-12-17T08:45:22.641Z,8.13
2017-12-17T08:47:51.674Z,14.73
2017-12-17T08:50:20.702Z,14.60
2017-12-17T08:52:49.034Z,12.50
2017-12-17T08:55:17.302Z,14.60
2017-12-17T08:57:45.598Z,15.83
2017-12-17T09:00:14.750Z,15.60
2017-12-17T09:02:43.184Z,10.37
2017-12-17T09:05:11.454Z,13.10
2017-12-17T09:07:39.774Z,14.67
2017-12-17T09:10:08.812Z,7.57
2017-12-17T09:12:37.119Z,8.87
2017-12-17T09:15:05.439Z,7.93
2017-12-17T09:17:34.441Z,13.67
2017-12-17T09:20:02.699Z,12.80
2017-12-17T09:22:31.911Z,8.33
2017-12-17T09:25:00.925Z,8.20
2017-12-17T09:27:29.209Z,12.00
2017-12-17T09:29:57.716Z,14.20
2017-12-17T09:32:25.998Z,10.63
2017-12-17T09:34:54.302Z,15.63
2017-12-17T09:37:22.731Z,13.37
2017-12-17T09:39:51.046Z,9.90
2017-12-17T09:42:19.324Z,14.80
2017-12-17T09:44:48.474Z,17.33
2017-12-17T09:47:17.010Z,15.87
2017-12-17T09:49:46.091Z,16.07
2017-12-17T09:52:14.442Z,12.50
2017-12-17T09:54:42.714Z,16.30
2017-12-17T09:57:11.008Z,16.60
2017-12-17T09:59:39.405Z,8.83
2017-12-17T10:02:07.697Z,13.17
2017-12-17T10:04:36.088Z,18.60
2017-12-17T10:07:06.385Z,14.43
2017-12-17T10:09:35.523Z,15.87
2017-12-17T10:12:05.446Z,15.70
2017-12-17T10:14:35.560Z,18.10
2017-12-17T10:17:05.313Z,17.33
2017-12-17T10:19:36.506Z,14.80
2017-12-17T10:22:04.983Z,17.53
2017-12-17T10:24:33.252Z,18.33
2017-12-17T10:27:01.592Z,17.50
2017-12-17T10:29:29.899Z,14.90
2017-12-17T10:31:58.163Z,18.87
2017-12-17T10:34:27.266Z,19.27
2017-12-17T10:36:55.563Z,24.30
2017-12-17T10:39:23.864Z,19.00
2017-12-17T10:41:52.185Z,21.73
2017-12-17T10:44:20.488Z,17.17
2017-12-17T10:46:48.759Z,20.70
2017-12-17T10:49:17.082Z,17.77
2017-12-17T10:51:45.395Z,17.77
2017-12-17T10:54:14.099Z,18.80
2017-12-17T10:56:42.638Z,20.13
2017-12-17T10:59:11.006Z,15.80
2017-12-17T11:01:39.339Z,14.47
2017-12-17T11:04:07.760Z,16.77
2017-12-17T11:06:36.046Z,18.00
2017-12-17T11:09:04.533Z,19.50
2017-12-17T11:11:32.982Z,16.97
2017-12-17T11:14:01.278Z,10.80
2017-12-17T11:16:29.543Z,10.63
2017-12-17T11:18:57.968Z,13.23
2017-12-17T11:21:27.173Z,16.03
2017-12-17T11:23:55.541Z,15.57
2017-12-17T11:26:24.607Z,15.23
2017-12-17T11:28:52.890Z,16.63
2017-12-17T11:31:21.968Z,15.93
2017-12-17T11:33:52.160Z,18.23
2017-12-17T11:36:20.859Z,17.10
2017-12-17T11:38:50.467Z,17.97
2017-12-17T11:41:21.005Z,15.60
2017-12-17T11:43:50.281Z,20.23
2017-12-17T11:46:23.026Z,11.10
2017-12-17T11:48:58.122Z,13.27
2017-12-17T11:51:26.713Z,17.13
2017-12-17T11:53:55.079Z,16.40
2017-12-17T11:56:23.359Z,7.53
2017-12-17T11:58:52.460Z,17.77
2017-12-17T12:01:20.729Z,19.70
2017-12-17T12:03:49.031Z,19.00
2017-12-17T12:06:18.183Z,17.30
2017-12-17T12:08:47.434Z,18.07
2017-12-17T12:11:16.602Z,8.80
2017-12-17T12:13:46.758Z,14.97
2017-12-17T12:16:15.878Z,15.13
2017-12-17T12:18:44.190Z,8.30
2017-12-17T12:21:12.527Z,13.50
2017-12-17T12:23:40.882Z,18.23
2017-12-17T12:26:09.940Z,19.47
2017-12-17T12:28:38.396Z,12.60
2017-12-17T12:31:06.728Z,11.97
2017-12-17T12:33:35.828Z,26.03
2017-12-17T12:36:04.923Z,21.90
2017-12-17T12:38:33.983Z,22.10
2017-12-17T12:41:03.100Z,15.03
2017-12-17T12:43:32.310Z,18.07
2017-12-17T12:46:00.755Z,18.90
2017-12-17T12:48:29.032Z,14.77
2017-12-17T12:50:57.346Z,15.07
2017-12-17T12:53:26.490Z,16.17
2017-12-17T12:55:54.781Z,19.60
2017-12-17T12:58:23.180Z,20.70
2017-12-17T13:00:51.476Z,9.60
2017-12-17T13:03:20.613Z,23.17
2017-12-17T13:05:48.900Z,16.03
2017-12-17T13:08:17.973Z,12.10
2017-12-17T13:10:46.239Z,11.77
2017-12-17T13:13:14.574Z,10.47
2017-12-17T13:15:42.936Z,20.80
2017-12-17T13:18:11.232Z,21.17
2017-12-17T13:20:40.106Z,9.73
2017-12-17T13:23:08.389Z,9.93
2017-12-17T13:25:37.246Z,18.90
2017-12-17T13:28:05.543Z,13.90
2017-12-17T13:30:33.879Z,14.87
2017-12-17T13:33:02.216Z,13.43
2017-12-17T13:35:31.338Z,22.50
2017-12-17T13:37:59.584Z,22.20
2017-12-17T13:40:27.910Z,22.33
2017-12-17T13:42:56.414Z,11.33
2017-12-17T13:45:24.719Z,11.40
2017-12-17T13:47:53.011Z,11.90
2017-12-17T13:50:22.080Z,12.47
2017-12-17T13:52:50.340Z,13.60
2017-12-17T13:55:18.612Z,11.90
2017-12-17T13:57:46.937Z,13.27
2017-12-17T14:00:16.822Z,14.13
2017-12-17T14:02:45.100Z,10.63
2017-12-17T14:05:13.411Z,11.40
2017-12-17T14:07:42.436Z,10.73
2017-12-17T14:10:10.770Z,10.13
2017-12-17T14:12:39.817Z,9.90
2017-12-17T14:15:08.099Z,10.83
2017-12-17T14:17:36.371Z,10.90
2017-12-17T14:20:04.730Z,10.20
2017-12-17T14:22:33.019Z,11.07
2017-12-17T14:25:01.316Z,10.37
2017-12-17T14:27:29.644Z,10.03
2017-12-17T14:29:57.937Z,11.83
2017-12-17T14:32:26.235Z,13.80
2017-12-17T14:34:54.604Z,20.83
2017-12-17T14:37:22.911Z,19.67
2017-12-17T14:39:51.180Z,18.63
2017-12-17T14:42:19.517Z,18.93
2017-12-17T14:44:47.796Z,10.60
2017-12-17T14:47:16.154Z,11.93
2017-12-17T14:49:44.463Z,11.57
2017-12-17T14:52:13.462Z,10.87
2017-12-17T14:54:41.730Z,13.03
2017-12-17T14:57:10.051Z,10.97
2017-12-17T14:59:38.401Z,12.73
2017-12-17T15:02:06.792Z,27.27
2017-12-17T15:04:35.116Z,16.63
2017-12-17T15:07:03.365Z,12.80
2017-12-17T15:09:32.387Z,11.20
2017-12-17T15:12:00.723Z,10.03
2017-12-17T15:14:29.051Z,11.87
2017-12-17T15:16:57.305Z,11.30
2017-12-17T15:19:25.590Z,10.97
2017-12-17T15:21:53.864Z,11.47
2017-12-17T15:24:22.124Z,10.73
2017-12-17T15:26:52.860Z,11.67
2017-12-17T15:29:21.298Z,10.40
2017-12-17T15:31:49.664Z,11.07
2017-12-17T15:34:17.932Z,13.30
2017-12-17T15:36:46.211Z,12.00
2017-12-17T15:39:14.541Z,11.27
2017-12-17T15:41:42.902Z,12.00
2017-12-17T15:44:11.165Z,12.33
2017-12-17T15:46:39.504Z,12.40
2017-12-17T15:49:07.782Z,12.97
2017-12-17T15:51:36.113Z,11.53
2017-12-17T15:54:04.462Z,12.20
2017-12-17T15:56:32.705Z,11.10
2017-12-17T15:59:00.994Z,12.57
2017-12-17T16:01:29.343Z,12.00
2017-12-17T16:03:57.661Z,10.97
2017-12-17T16:06:25.921Z,10.07
2017-12-17T16:08:54.259Z,10.43
2017-12-17T16:11:23.288Z,11.60
2017-12-17T16:13:51.555Z,12.00
2017-12-17T16:16:19.874Z,11.53
2017-12-17T16:18:48.128Z,11.53
2017-12-17T16:21:16.457Z,12.70
2017-12-17T16:23:44.764Z,22.13
2017-12-17T16:26:13.094Z,12.63
2017-12-17T16:28:42.193Z,14.37
2017-12-17T16:31:10.507Z,19.67
2017-12-17T16:33:38.834Z,26.83
2017-12-17T16:36:07.143Z,29.50
2017-12-17T16:38:35.510Z,28.90
2017-12-17T16:41:03.793Z,32.93
2017-12-17T16:43:32.826Z,40.93
2017-12-17T16:46:01.158Z,44.43
2017-12-17T16:48:29.471Z,47.00
2017-12-17T16:50:57.748Z,44.03
2017-12-17T16:53:26.039Z,35.67
2017-12-17T16:55:54.382Z,39.80
2017-12-17T16:58:22.687Z,31.63
2017-12-17T17:00:51.028Z,27.50
2017-12-17T17:03:19.318Z,26.23
2017-12-17T17:05:47.596Z,26.10
2017-12-17T17:08:15.937Z,28.90
2017-12-17T17:10:44.208Z,21.07
2017-12-17T17:13:13.247Z,24.20
2017-12-17T17:15:41.583Z,24.47
2017-12-17T17:18:10.586Z,27.63
2017-12-17T17:20:39.617Z,27.63
2017-12-17T17:23:08.040Z,32.63
2017-12-17T17:25:37.111Z,25.10
2017-12-17T17:28:05.425Z,21.17
2017-12-17T17:30:34.587Z,18.20
2017-12-17T17:33:02.851Z,13.37
2017-12-17T17:35:31.166Z,13.20
2017-12-17T17:37:59.520Z,16.10
2017-12-17T17:40:27.799Z,14.57
2017-12-17T17:42:56.058Z,14.80
2017-12-17T17:45:24.403Z,13.27
2017-12-17T17:47:52.694Z,13.70
2017-12-17T17:50:21.733Z,15.00
2017-12-17T17:52:50.021Z,10.10
2017-12-17T17:55:19.062Z,10.37
2017-12-17T17:57:48.260Z,11.10
2017-12-17T18:00:16.506Z,16.00
2017-12-17T18:02:44.768Z,12.60
2017-12-17T18:05:13.809Z,12.53
2017-12-17T18:07:42.050Z,13.77
2017-12-17T18:10:11.073Z,16.57
2017-12-17T18:12:39.364Z,13.37
2017-12-17T18:15:08.571Z,22.00
2017-12-17T18:17:36.933Z,19.70
2017-12-17T18:20:05.361Z,15.70
2017-12-17T18:22:34.416Z,17.43
2017-12-17T18:25:02.742Z,12.13
2017-12-17T18:27:31.038Z,21.60
2017-12-17T18:29:59.429Z,21.47
2017-12-17T18:32:27.719Z,13.10
2017-12-17T18:34:56.035Z,14.30
2017-12-17T18:37:25.217Z,21.40
2017-12-17T18:39:54.500Z,20.90
2017-12-17T18:42:22.826Z,19.87
2017-12-17T18:44:51.075Z,28.13
2017-12-17T18:47:19.457Z,39.97
2017-12-17T18:49:47.771Z,25.00
2017-12-17T18:52:16.130Z,27.60
2017-12-17T18:54:44.406Z,29.30
2017-12-17T18:57:13.762Z,29.30
2017-12-17T18:59:42.379Z,28.03
2017-12-17T19:02:10.743Z,24.37
2017-12-17T19:04:39.059Z,30.60
2017-12-17T19:07:07.412Z,26.17
2017-12-17T19:09:36.449Z,27.87
2017-12-17T19:12:04.830Z,33.47
2017-12-17T19:14:33.108Z,30.63
2017-12-17T19:17:01.377Z,28.00
2017-12-17T19:19:29.657Z,34.73
2017-12-17T19:21:57.951Z,34.60
2017-12-17T19:24:26.202Z,32.37
2017-12-17T19:26:54.580Z,33.90
2017-12-17T19:29:22.863Z,30.30
2017-12-17T19:31:52.386Z,33.57
2017-12-17T19:34:20.794Z,31.67
2017-12-17T19:36:50.624Z,48.80
2017-12-17T19:39:18.900Z,41.00
2017-12-17T19:41:48.481Z,52.83
2017-12-17T19:44:16.792Z,41.33
2017-12-17T19:46:45.104Z,62.50
2017-12-17T19:49:13.574Z,50.20
2017-12-17T19:51:41.847Z,33.60
2017-12-17T19:54:10.152Z,35.73
2017-12-17T19:56:38.611Z,37.87
2017-12-17T19:59:06.893Z,30.70
2017-12-17T20:01:35.186Z,32.03
2017-12-17T20:04:03.529Z,35.43
2017-12-17T20:06:31.854Z,29.50
2017-12-17T20:09:00.145Z,32.77
2017-12-17T20:11:29.464Z,36.80
2017-12-17T20:13:57.855Z,25.20
2017-12-17T20:16:26.163Z,45.30
2017-12-17T20:18:54.802Z,30.50
2017-12-17T20:21:23.125Z,42.67
2017-12-17T20:23:51.444Z,42.97
2017-12-17T20:26:20.718Z,31.07
2017-12-17T20:28:49.047Z,37.37
2017-12-17T20:31:18.079Z,37.70
2017-12-17T20:33:46.418Z,33.83
2017-12-17T20:36:14.680Z,33.40
2017-12-17T20:38:43.719Z,37.70
2017-12-17T20:41:12.014Z,32.00
2017-12-17T20:43:40.301Z,34.63
2017-12-17T20:46:09.458Z,38.87
2017-12-17T20:48:37.918Z,30.40
2017-12-17T20:51:06.182Z,25.00
2017-12-17T20:53:34.439Z,30.57
2017-12-17T20:56:02.750Z,30.30
2017-12-17T20:58:31.067Z,24.60
2017-12-17T21:00:59.527Z,22.33
2017-12-17T21:03:27.861Z,23.17
2017-12-17T21:05:56.186Z,25.23
2017-12-17T21:08:24.438Z,24.80
2017-12-17T21:10:52.744Z,24.80
2017-12-17T21:13:21.003Z,20.93
2017-12-17T21:15:49.260Z,23.67
2017-12-17T21:18:17.559Z,26.10
2017-12-17T21:20:45.815Z,26.17
2017-12-17T21:23:14.094Z,24.03
2017-12-17T21:25:42.438Z,23.07
2017-12-17T21:28:11.211Z,27.80
2017-12-17T21:30:39.491Z,26.07
2017-12-17T21:33:08.585Z,24.43
2017-12-17T21:35:36.927Z,23.20
2017-12-17T21:38:05.224Z,27.47
2017-12-17T21:40:33.565Z,30.10
2017-12-17T21:43:01.889Z,29.13
2017-12-17T21:45:30.908Z,25.77
2017-12-17T21:47:59.223Z,26.27
2017-12-17T21:50:27.503Z,28.03
2017-12-17T21:52:55.745Z,25.10
2017-12-17T21:55:24.303Z,21.27
2017-12-17T21:57:53.374Z,24.70
2017-12-17T22:00:21.697Z,22.93
2017-12-17T22:02:50.080Z,21.60
2017-12-17T22:05:18.331Z,25.70
2017-12-17T22:07:47.372Z,25.50
2017-12-17T22:10:15.638Z,32.57
2017-12-17T22:12:43.905Z,29.83
2017-12-17T22:15:12.239Z,41.03
2017-12-17T22:17:40.589Z,33.23
2017-12-17T22:20:08.829Z,34.40
2017-12-17T22:22:37.065Z,27.87
2017-12-17T22:25:06.202Z,30.13
2017-12-17T22:27:34.450Z,28.93
2017-12-17T22:30:03.501Z,26.50
2017-12-17T22:32:31.787Z,35.63
2017-12-17T22:35:00.068Z,34.20
2017-12-17T22:37:28.352Z,40.57
2017-12-17T22:39:57.413Z,31.97
2017-12-17T22:42:25.676Z,31.80
2017-12-17T22:44:53.951Z,44.20
2017-12-17T22:47:22.241Z,49.70
2017-12-17T22:49:50.476Z,34.90
2017-12-17T22:52:18.734Z,33.80
2017-12-17T22:54:47.835Z,35.87
2017-12-17T22:57:16.115Z,41.00
2017-12-17T22:59:45.115Z,40.53
2017-12-17T23:02:13.397Z,34.80
2017-12-17T23:04:41.654Z,38.57
2017-12-17T23:07:10.666Z,30.67
2017-12-17T23:09:38.968Z,31.87
2017-12-17T23:12:07.286Z,32.63
2017-12-17T23:14:35.599Z,34.67
2017-12-17T23:17:03.882Z,33.13
2017-12-17T23:19:32.122Z,34.30
2017-12-17T23:22:01.135Z,30.07
2017-12-17T23:24:29.443Z,32.60
2017-12-17T23:26:57.734Z,30.30
2017-12-17T23:29:25.996Z,30.30
2017-12-17T23:31:54.404Z,34.53
2017-12-17T23:34:22.651Z,29.40
2017-12-17T23:36:50.947Z,27.50
2017-12-17T23:39:19.239Z,29.63
2017-12-17T23:41:47.520Z,30.17
2017-12-17T23:44:16.534Z,25.50
2017-12-17T23:46:44.818Z,27.43
2017-12-17T23:49:13.057Z,24.90
2017-12-17T23:51:41.311Z,29.00
2017-12-17T23:54:09.604Z,30.90
2017-12-17T23:56:37.882Z,31.70
2017-12-17T23:59:06.143Z,30.07
